sensor_id;sensor_type;location;lat;lon;timestamp;temperature;humidity
42479;DHT22;28110;47.080;9.476;2023-04-01T00:00:48;7.60;99.90
42479;DHT22;28110;47.080;9.476;2023-04-01T00:03:14;7.60;99.90
42479;DHT22;28110;47.080;9.476;2023-04-01T00:05:39;7.60;99.90
42479;DHT22;28110;47.080;9.476;2023-04-01T00:08:05;7.70;99.90
42479;DHT22;28110;47.080;9.476;2023-04-01T00:10:31;7.60;99.90
42479;DHT22;28110;47.080;9.476;2023-04-01T00:12:56;7.70;99.90
42479;DHT22;28110;47.080;9.476;2023-04-01T00:15:22;7.70;99.90
42479;DHT22;28110;47.080;9.476;2023-04-01T00:17:48;7.60;99.90
42479;DHT22;28110;47.080;9.476;2023-04-01T00:20:13;7.60;99.90
42479;DHT22;28110;47.080;9.476;2023-04-01T00:22:40;7.60;99.90
42479;DHT22;28110;47.080;9.476;2023-04-01T00:25:06;7.60;99.90
42479;DHT22;28110;47.080;9.476;2023-04-01T00:27:32;7.60;99.90
42479;DHT22;28110;47.080;9.476;2023-04-01T00:29:58;7.50;99.90
42479;DHT22;28110;47.080;9.476;2023-04-01T00:32:23;7.50;99.90
42479;DHT22;28110;47.080;9.476;2023-04-01T00:34:52;7.50;99.90
42479;DHT22;28110;47.080;9.476;2023-04-01T00:37:19;7.50;99.90
42479;DHT22;28110;47.080;9.476;2023-04-01T00:39:44;7.40;99.90
42479;DHT22;28110;47.080;9.476;2023-04-01T00:42:10;7.40;99.90
42479;DHT22;28110;47.080;9.476;2023-04-01T00:44:37;7.40;99.90
42479;DHT22;28110;47.080;9.476;2023-04-01T00:47:03;7.30;99.90
42479;DHT22;28110;47.080;9.476;2023-04-01T00:49:35;7.30;99.90
42479;DHT22;28110;47.080;9.476;2023-04-01T00:52:03;7.30;99.90
42479;DHT22;28110;47.080;9.476;2023-04-01T00:54:31;7.30;99.90
42479;DHT22;28110;47.080;9.476;2023-04-01T00:57:12;7.20;99.90
42479;DHT22;28110;47.080;9.476;2023-04-01T00:59:50;7.20;99.90
42479;DHT22;28110;47.080;9.476;2023-04-01T01:02:18;7.20;99.90
42479;DHT22;28110;47.080;9.476;2023-04-01T01:04:44;7.20;99.90
42479;DHT22;28110;47.080;9.476;2023-04-01T01:12:57;7.20;99.90
42479;DHT22;28110;47.080;9.476;2023-04-01T01:15:44;7.20;99.90
42479;DHT22;28110;47.080;9.476;2023-04-01T01:18:35;7.20;99.90
42479;DHT22;28110;47.080;9.476;2023-04-01T01:21:54;7.10;99.90
42479;DHT22;28110;47.080;9.476;2023-04-01T01:27:04;7.10;99.90
42479;DHT22;28110;47.080;9.476;2023-04-01T01:38:06;7.10;99.90
42479;DHT22;28110;47.080;9.476;2023-04-01T01:40:34;7.10;99.90
42479;DHT22;28110;47.080;9.476;2023-04-01T01:43:08;7.10;99.90
42479;DHT22;28110;47.080;9.476;2023-04-01T01:45:37;7.10;99.90
42479;DHT22;28110;47.080;9.476;2023-04-01T01:48:07;7.10;99.90
42479;DHT22;28110;47.080;9.476;2023-04-01T01:50:35;7.10;99.90
42479;DHT22;28110;47.080;9.476;2023-04-01T01:53:06;7.10;99.90
42479;DHT22;28110;47.080;9.476;2023-04-01T01:55:37;7.00;99.90
42479;DHT22;28110;47.080;9.476;2023-04-01T01:58:23;7.00;99.90
42479;DHT22;28110;47.080;9.476;2023-04-01T02:01:00;7.00;99.90
42479;DHT22;28110;47.080;9.476;2023-04-01T02:03:29;7.00;99.90
42479;DHT22;28110;47.080;9.476;2023-04-01T02:05:59;7.00;99.90
42479;DHT22;28110;47.080;9.476;2023-04-01T02:08:28;7.00;99.90
42479;DHT22;28110;47.080;9.476;2023-04-01T02:11:03;7.00;99.90
42479;DHT22;28110;47.080;9.476;2023-04-01T02:13:43;7.00;99.90
42479;DHT22;28110;47.080;9.476;2023-04-01T02:16:18;7.00;99.90
42479;DHT22;28110;47.080;9.476;2023-04-01T02:18:48;7.10;99.90
42479;DHT22;28110;47.080;9.476;2023-04-01T02:21:17;7.00;99.90
42479;DHT22;28110;47.080;9.476;2023-04-01T02:23:44;7.10;99.90
42479;DHT22;28110;47.080;9.476;2023-04-01T02:26:13;7.10;99.90
42479;DHT22;28110;47.080;9.476;2023-04-01T02:28:40;7.10;99.90
42479;DHT22;28110;47.080;9.476;2023-04-01T02:31:09;7.10;99.90
42479;DHT22;28110;47.080;9.476;2023-04-01T02:33:38;7.10;99.90
42479;DHT22;28110;47.080;9.476;2023-04-01T02:36:04;7.00;99.90
42479;DHT22;28110;47.080;9.476;2023-04-01T02:38:30;7.10;99.90
42479;DHT22;28110;47.080;9.476;2023-04-01T02:41:00;7.00;99.90
42479;DHT22;28110;47.080;9.476;2023-04-01T02:43:26;7.00;99.90
42479;DHT22;28110;47.080;9.476;2023-04-01T02:45:52;7.10;99.90
42479;DHT22;28110;47.080;9.476;2023-04-01T02:48:17;7.10;99.90
42479;DHT22;28110;47.080;9.476;2023-04-01T02:50:43;7.10;99.90
42479;DHT22;28110;47.080;9.476;2023-04-01T02:53:08;7.10;99.90
42479;DHT22;28110;47.080;9.476;2023-04-01T02:55:34;7.10;99.90
42479;DHT22;28110;47.080;9.476;2023-04-01T02:58:00;7.10;99.90
42479;DHT22;28110;47.080;9.476;2023-04-01T03:00:26;7.10;99.90
42479;DHT22;28110;47.080;9.476;2023-04-01T03:02:52;7.00;99.90
42479;DHT22;28110;47.080;9.476;2023-04-01T03:05:18;7.00;99.90
42479;DHT22;28110;47.080;9.476;2023-04-01T03:07:43;7.00;99.90
42479;DHT22;28110;47.080;9.476;2023-04-01T03:10:09;7.00;99.90
42479;DHT22;28110;47.080;9.476;2023-04-01T03:12:35;7.00;99.90
42479;DHT22;28110;47.080;9.476;2023-04-01T03:15:01;7.00;99.90
42479;DHT22;28110;47.080;9.476;2023-04-01T03:17:26;6.90;99.90
42479;DHT22;28110;47.080;9.476;2023-04-01T03:19:52;7.00;99.90
42479;DHT22;28110;47.080;9.476;2023-04-01T03:22:18;7.10;99.90
42479;DHT22;28110;47.080;9.476;2023-04-01T03:24:46;7.10;99.90
42479;DHT22;28110;47.080;9.476;2023-04-01T03:27:12;7.00;99.90
42479;DHT22;28110;47.080;9.476;2023-04-01T03:29:38;7.00;99.90
42479;DHT22;28110;47.080;9.476;2023-04-01T03:32:04;7.00;99.90
42479;DHT22;28110;47.080;9.476;2023-04-01T03:34:30;7.00;99.90
42479;DHT22;28110;47.080;9.476;2023-04-01T03:36:56;7.00;99.90
42479;DHT22;28110;47.080;9.476;2023-04-01T03:39:22;7.00;99.90
42479;DHT22;28110;47.080;9.476;2023-04-01T03:41:47;7.00;99.90
42479;DHT22;28110;47.080;9.476;2023-04-01T03:44:13;7.10;99.90
42479;DHT22;28110;47.080;9.476;2023-04-01T03:46:39;7.10;99.90
42479;DHT22;28110;47.080;9.476;2023-04-01T03:49:09;7.10;99.90
42479;DHT22;28110;47.080;9.476;2023-04-01T03:51:38;7.20;99.90
42479;DHT22;28110;47.080;9.476;2023-04-01T03:54:04;7.10;99.90
42479;DHT22;28110;47.080;9.476;2023-04-01T03:56:30;7.10;99.90
42479;DHT22;28110;47.080;9.476;2023-04-01T03:58:55;7.10;99.90
42479;DHT22;28110;47.080;9.476;2023-04-01T04:01:21;7.00;99.90
42479;DHT22;28110;47.080;9.476;2023-04-01T04:03:48;7.00;99.90
42479;DHT22;28110;47.080;9.476;2023-04-01T04:06:15;7.00;99.90
42479;DHT22;28110;47.080;9.476;2023-04-01T04:08:41;7.00;99.90
42479;DHT22;28110;47.080;9.476;2023-04-01T04:11:07;7.00;99.90
42479;DHT22;28110;47.080;9.476;2023-04-01T04:13:33;7.00;99.90
42479;DHT22;28110;47.080;9.476;2023-04-01T04:15:58;7.00;99.90
42479;DHT22;28110;47.080;9.476;2023-04-01T04:18:24;7.00;99.90
42479;DHT22;28110;47.080;9.476;2023-04-01T04:20:50;7.00;99.90
42479;DHT22;28110;47.080;9.476;2023-04-01T04:23:17;7.00;99.90
42479;DHT22;28110;47.080;9.476;2023-04-01T04:26:26;7.10;99.90
42479;DHT22;28110;47.080;9.476;2023-04-01T04:28:45;7.10;99.90
42479;DHT22;28110;47.080;9.476;2023-04-01T04:31:11;7.20;99.90
42479;DHT22;28110;47.080;9.476;2023-04-01T04:33:36;7.20;99.90
42479;DHT22;28110;47.080;9.476;2023-04-01T04:36:03;7.20;99.90
42479;DHT22;28110;47.080;9.476;2023-04-01T04:38:29;7.20;99.90
42479;DHT22;28110;47.080;9.476;2023-04-01T04:40:55;7.20;99.90
42479;DHT22;28110;47.080;9.476;2023-04-01T04:43:21;7.20;99.90
42479;DHT22;28110;47.080;9.476;2023-04-01T04:45:47;7.10;99.90
42479;DHT22;28110;47.080;9.476;2023-04-01T04:48:15;7.10;99.90
42479;DHT22;28110;47.080;9.476;2023-04-01T04:50:47;7.10;99.90
42479;DHT22;28110;47.080;9.476;2023-04-01T04:53:13;7.10;99.90
42479;DHT22;28110;47.080;9.476;2023-04-01T04:55:47;7.20;99.90
42479;DHT22;28110;47.080;9.476;2023-04-01T04:58:13;7.20;99.90
42479;DHT22;28110;47.080;9.476;2023-04-01T05:00:39;7.20;99.90
42479;DHT22;28110;47.080;9.476;2023-04-01T05:03:05;7.20;99.90
42479;DHT22;28110;47.080;9.476;2023-04-01T05:05:30;7.20;99.90
42479;DHT22;28110;47.080;9.476;2023-04-01T05:07:56;7.30;99.90
42479;DHT22;28110;47.080;9.476;2023-04-01T05:10:21;7.30;99.90
42479;DHT22;28110;47.080;9.476;2023-04-01T05:12:47;7.30;99.90
42479;DHT22;28110;47.080;9.476;2023-04-01T05:15:12;7.30;99.90
42479;DHT22;28110;47.080;9.476;2023-04-01T05:17:39;7.30;99.90
42479;DHT22;28110;47.080;9.476;2023-04-01T05:20:05;7.30;99.90
42479;DHT22;28110;47.080;9.476;2023-04-01T05:22:31;7.30;99.90
42479;DHT22;28110;47.080;9.476;2023-04-01T05:24:56;7.40;99.90
42479;DHT22;28110;47.080;9.476;2023-04-01T05:27:23;7.40;99.90
42479;DHT22;28110;47.080;9.476;2023-04-01T05:29:49;7.30;99.90
42479;DHT22;28110;47.080;9.476;2023-04-01T05:32:14;7.40;99.90
42479;DHT22;28110;47.080;9.476;2023-04-01T05:34:40;7.40;99.90
42479;DHT22;28110;47.080;9.476;2023-04-01T05:37:05;7.40;99.90
42479;DHT22;28110;47.080;9.476;2023-04-01T05:39:36;7.40;99.90
42479;DHT22;28110;47.080;9.476;2023-04-01T05:42:02;7.40;99.90
42479;DHT22;28110;47.080;9.476;2023-04-01T05:44:28;7.40;99.90
42479;DHT22;28110;47.080;9.476;2023-04-01T05:46:53;7.40;99.90
42479;DHT22;28110;47.080;9.476;2023-04-01T05:49:19;7.50;99.90
42479;DHT22;28110;47.080;9.476;2023-04-01T05:51:45;7.60;99.90
42479;DHT22;28110;47.080;9.476;2023-04-01T05:54:10;7.60;99.90
42479;DHT22;28110;47.080;9.476;2023-04-01T05:56:36;7.60;99.90
42479;DHT22;28110;47.080;9.476;2023-04-01T05:59:01;7.60;99.90
42479;DHT22;28110;47.080;9.476;2023-04-01T06:01:27;7.50;99.90
42479;DHT22;28110;47.080;9.476;2023-04-01T06:03:52;7.50;99.90
42479;DHT22;28110;47.080;9.476;2023-04-01T06:06:27;7.50;99.90
42479;DHT22;28110;47.080;9.476;2023-04-01T06:08:53;7.40;99.90
42479;DHT22;28110;47.080;9.476;2023-04-01T06:14:11;7.40;99.90
42479;DHT22;28110;47.080;9.476;2023-04-01T06:19:50;7.30;99.90
42479;DHT22;28110;47.080;9.476;2023-04-01T06:23:00;7.30;99.90
42479;DHT22;28110;47.080;9.476;2023-04-01T06:34:15;7.20;99.90
42479;DHT22;28110;47.080;9.476;2023-04-01T06:36:50;7.30;99.90
42479;DHT22;28110;47.080;9.476;2023-04-01T06:39:27;7.30;99.90
42479;DHT22;28110;47.080;9.476;2023-04-01T06:42:24;7.40;99.90
42479;DHT22;28110;47.080;9.476;2023-04-01T06:45:27;7.40;99.90
42479;DHT22;28110;47.080;9.476;2023-04-01T06:48:13;7.40;99.90
42479;DHT22;28110;47.080;9.476;2023-04-01T06:51:09;7.40;99.90
42479;DHT22;28110;47.080;9.476;2023-04-01T06:54:03;7.40;99.90
42479;DHT22;28110;47.080;9.476;2023-04-01T06:56:32;7.40;99.90
42479;DHT22;28110;47.080;9.476;2023-04-01T06:59:02;7.40;99.90
42479;DHT22;28110;47.080;9.476;2023-04-01T07:01:30;7.30;99.90
42479;DHT22;28110;47.080;9.476;2023-04-01T07:04:01;7.30;99.90
42479;DHT22;28110;47.080;9.476;2023-04-01T07:06:43;7.30;99.90
42479;DHT22;28110;47.080;9.476;2023-04-01T07:09:12;7.30;99.90
42479;DHT22;28110;47.080;9.476;2023-04-01T07:11:40;7.30;99.90
42479;DHT22;28110;47.080;9.476;2023-04-01T07:14:25;7.30;99.90
42479;DHT22;28110;47.080;9.476;2023-04-01T07:22:38;7.30;99.90
42479;DHT22;28110;47.080;9.476;2023-04-01T07:25:16;7.30;99.90
42479;DHT22;28110;47.080;9.476;2023-04-01T07:27:43;7.40;99.90
42479;DHT22;28110;47.080;9.476;2023-04-01T07:30:33;7.40;99.90
42479;DHT22;28110;47.080;9.476;2023-04-01T07:33:32;7.40;99.90
42479;DHT22;28110;47.080;9.476;2023-04-01T07:36:14;7.50;99.90
42479;DHT22;28110;47.080;9.476;2023-04-01T07:47:03;7.70;99.90
42479;DHT22;28110;47.080;9.476;2023-04-01T07:55:33;7.80;99.90
42479;DHT22;28110;47.080;9.476;2023-04-01T08:06:45;7.90;99.90
42479;DHT22;28110;47.080;9.476;2023-04-01T08:09:32;7.90;99.90
42479;DHT22;28110;47.080;9.476;2023-04-01T08:12:22;7.90;99.90
42479;DHT22;28110;47.080;9.476;2023-04-01T08:20:53;8.10;99.90
42479;DHT22;28110;47.080;9.476;2023-04-01T08:23:47;8.20;99.90
42479;DHT22;28110;47.080;9.476;2023-04-01T08:26:39;8.30;99.90
42479;DHT22;28110;47.080;9.476;2023-04-01T08:29:12;8.40;99.90
42479;DHT22;28110;47.080;9.476;2023-04-01T08:31:40;8.40;99.90
42479;DHT22;28110;47.080;9.476;2023-04-01T08:34:15;8.40;99.90
42479;DHT22;28110;47.080;9.476;2023-04-01T08:36:46;8.40;99.90
42479;DHT22;28110;47.080;9.476;2023-04-01T08:39:49;8.40;99.90
42479;DHT22;28110;47.080;9.476;2023-04-01T08:45:15;8.30;99.90
42479;DHT22;28110;47.080;9.476;2023-04-01T08:56:23;8.20;99.90
42479;DHT22;28110;47.080;9.476;2023-04-01T09:01:32;8.30;99.90
42479;DHT22;28110;47.080;9.476;2023-04-01T09:04:24;8.40;99.90
42479;DHT22;28110;47.080;9.476;2023-04-01T09:26:24;8.60;99.90
42479;DHT22;28110;47.080;9.476;2023-04-01T09:34:54;8.60;99.90
42479;DHT22;28110;47.080;9.476;2023-04-01T09:43:22;8.80;99.90
42479;DHT22;28110;47.080;9.476;2023-04-01T09:46:04;8.90;99.90
42479;DHT22;28110;47.080;9.476;2023-04-01T09:51:33;9.20;99.90
42479;DHT22;28110;47.080;9.476;2023-04-01T09:54:20;9.40;99.90
42479;DHT22;28110;47.080;9.476;2023-04-01T10:22:37;10.00;99.90
42479;DHT22;28110;47.080;9.476;2023-04-01T10:25:24;10.00;99.90
42479;DHT22;28110;47.080;9.476;2023-04-01T10:30:38;10.00;99.90
42479;DHT22;28110;47.080;9.476;2023-04-01T10:47:36;10.50;99.90
42479;DHT22;28110;47.080;9.476;2023-04-01T10:53:31;10.60;99.90
42479;DHT22;28110;47.080;9.476;2023-04-01T10:58:53;10.80;99.90
42479;DHT22;28110;47.080;9.476;2023-04-01T11:04:40;11.00;99.90
42479;DHT22;28110;47.080;9.476;2023-04-01T11:19:15;11.10;99.90
42479;DHT22;28110;47.080;9.476;2023-04-01T11:36:43;10.90;99.90
42479;DHT22;28110;47.080;9.476;2023-04-01T11:44:46;10.80;99.90
42479;DHT22;28110;47.080;9.476;2023-04-01T11:47:47;10.90;99.90
42479;DHT22;28110;47.080;9.476;2023-04-01T11:53:10;11.10;99.90
42479;DHT22;28110;47.080;9.476;2023-04-01T12:12:36;11.60;99.90
42479;DHT22;28110;47.080;9.476;2023-04-01T12:17:55;11.70;99.90
42479;DHT22;28110;47.080;9.476;2023-04-01T12:34:33;12.00;99.90
42479;DHT22;28110;47.080;9.476;2023-04-01T12:37:38;12.00;99.90
42479;DHT22;28110;47.080;9.476;2023-04-01T12:43:17;12.00;99.90
42479;DHT22;28110;47.080;9.476;2023-04-01T12:59:32;12.20;99.90
42479;DHT22;28110;47.080;9.476;2023-04-01T13:07:57;12.40;99.90
42479;DHT22;28110;47.080;9.476;2023-04-01T13:13:30;12.60;99.90
42479;DHT22;28110;47.080;9.476;2023-04-01T13:16:22;12.60;99.90
42479;DHT22;28110;47.080;9.476;2023-04-01T13:22:14;12.60;99.90
42479;DHT22;28110;47.080;9.476;2023-04-01T13:24:58;12.60;99.90
42479;DHT22;28110;47.080;9.476;2023-04-01T13:27:34;12.60;99.90
42479;DHT22;28110;47.080;9.476;2023-04-01T13:33:40;12.60;99.90
42479;DHT22;28110;47.080;9.476;2023-04-01T13:36:28;12.60;99.90
42479;DHT22;28110;47.080;9.476;2023-04-01T13:44:39;12.70;99.90
42479;DHT22;28110;47.080;9.476;2023-04-01T13:55:30;12.60;99.90
42479;DHT22;28110;47.080;9.476;2023-04-01T14:01:08;12.50;99.90
42479;DHT22;28110;47.080;9.476;2023-04-01T14:04:14;12.40;99.90
42479;DHT22;28110;47.080;9.476;2023-04-01T14:07:00;12.30;99.90
42479;DHT22;28110;47.080;9.476;2023-04-01T14:12:32;12.40;99.90
42479;DHT22;28110;47.080;9.476;2023-04-01T14:15:27;12.50;99.90
42479;DHT22;28110;47.080;9.476;2023-04-01T14:20:39;12.60;99.90
42479;DHT22;28110;47.080;9.476;2023-04-01T14:48:37;12.90;99.90
42479;DHT22;28110;47.080;9.476;2023-04-01T14:51:10;12.80;99.90
42479;DHT22;28110;47.080;9.476;2023-04-01T14:53:43;12.80;99.90
42479;DHT22;28110;47.080;9.476;2023-04-01T14:56:11;12.80;99.90
42479;DHT22;28110;47.080;9.476;2023-04-01T14:58:45;12.80;99.90
42479;DHT22;28110;47.080;9.476;2023-04-01T15:07:06;12.60;99.90
42479;DHT22;28110;47.080;9.476;2023-04-01T15:17:43;12.40;99.90
42479;DHT22;28110;47.080;9.476;2023-04-01T15:23:57;12.30;99.90
42479;DHT22;28110;47.080;9.476;2023-04-01T15:26:47;12.30;99.90
42479;DHT22;28110;47.080;9.476;2023-04-01T15:32:40;12.20;99.90
42479;DHT22;28110;47.080;9.476;2023-04-01T15:37:58;12.00;99.90
42479;DHT22;28110;47.080;9.476;2023-04-01T15:43:31;11.90;99.90
42479;DHT22;28110;47.080;9.476;2023-04-01T15:49:23;11.90;99.90
42479;DHT22;28110;47.080;9.476;2023-04-01T15:51:54;12.00;99.90
42479;DHT22;28110;47.080;9.476;2023-04-01T16:02:57;12.00;99.90
42479;DHT22;28110;47.080;9.476;2023-04-01T16:05:33;12.00;99.90
42479;DHT22;28110;47.080;9.476;2023-04-01T16:11:28;11.90;99.90
42479;DHT22;28110;47.080;9.476;2023-04-01T16:22:14;11.70;99.90
42479;DHT22;28110;47.080;9.476;2023-04-01T16:30:35;11.60;99.90
42479;DHT22;28110;47.080;9.476;2023-04-01T16:35:54;11.50;99.90
42479;DHT22;28110;47.080;9.476;2023-04-01T16:46:39;11.10;99.90
42479;DHT22;28110;47.080;9.476;2023-04-01T16:57:25;10.80;99.90
42479;DHT22;28110;47.080;9.476;2023-04-01T16:59:55;10.70;99.90
42479;DHT22;28110;47.080;9.476;2023-04-01T17:02:27;10.60;99.90
42479;DHT22;28110;47.080;9.476;2023-04-01T17:05:09;10.30;99.90
42479;DHT22;28110;47.080;9.476;2023-04-01T17:10:50;10.10;99.90
42479;DHT22;28110;47.080;9.476;2023-04-01T17:18:48;10.00;99.90
42479;DHT22;28110;47.080;9.476;2023-04-01T17:21:38;9.90;99.90
42479;DHT22;28110;47.080;9.476;2023-04-01T17:24:23;9.90;99.90
42479;DHT22;28110;47.080;9.476;2023-04-01T17:35:21;9.30;99.90
42479;DHT22;28110;47.080;9.476;2023-04-01T17:38:06;9.30;99.90
42479;DHT22;28110;47.080;9.476;2023-04-01T17:49:50;9.20;99.90
42479;DHT22;28110;47.080;9.476;2023-04-01T17:52:22;9.30;99.90
42479;DHT22;28110;47.080;9.476;2023-04-01T17:57:52;9.30;99.90
42479;DHT22;28110;47.080;9.476;2023-04-01T18:00:46;9.30;99.90
42479;DHT22;28110;47.080;9.476;2023-04-01T18:08:47;9.10;99.90
42479;DHT22;28110;47.080;9.476;2023-04-01T18:17:02;9.10;99.90
42479;DHT22;28110;47.080;9.476;2023-04-01T18:27:28;9.20;99.90
42479;DHT22;28110;47.080;9.476;2023-04-01T18:30:13;9.10;99.90
42479;DHT22;28110;47.080;9.476;2023-04-01T18:36:15;9.10;99.90
42479;DHT22;28110;47.080;9.476;2023-04-01T18:38:49;9.10;99.90
42479;DHT22;28110;47.080;9.476;2023-04-01T18:41:30;9.10;99.90
42479;DHT22;28110;47.080;9.476;2023-04-01T18:44:31;9.10;99.90
42479;DHT22;28110;47.080;9.476;2023-04-01T18:50:02;9.00;99.90
42479;DHT22;28110;47.080;9.476;2023-04-01T18:52:41;8.80;99.90
42479;DHT22;28110;47.080;9.476;2023-04-01T18:57:46;8.80;99.90
42479;DHT22;28110;47.080;9.476;2023-04-01T19:00:28;8.80;99.90
42479;DHT22;28110;47.080;9.476;2023-04-01T19:03:18;8.80;99.90
42479;DHT22;28110;47.080;9.476;2023-04-01T19:05:47;8.70;99.90
42479;DHT22;28110;47.080;9.476;2023-04-01T19:08:33;8.70;99.90
42479;DHT22;28110;47.080;9.476;2023-04-01T19:16:20;8.70;99.90
42479;DHT22;28110;47.080;9.476;2023-04-01T19:19:13;8.70;99.90
42479;DHT22;28110;47.080;9.476;2023-04-01T19:21:53;8.60;99.90
42479;DHT22;28110;47.080;9.476;2023-04-01T19:24:39;8.60;99.90
42479;DHT22;28110;47.080;9.476;2023-04-01T19:32:51;8.40;99.90
42479;DHT22;28110;47.080;9.476;2023-04-01T19:35:46;8.20;99.90
42479;DHT22;28110;47.080;9.476;2023-04-01T19:38:38;8.00;99.90
42479;DHT22;28110;47.080;9.476;2023-04-01T19:41:14;7.90;99.90
42479;DHT22;28110;47.080;9.476;2023-04-01T19:44:12;7.80;99.90
42479;DHT22;28110;47.080;9.476;2023-04-01T19:46:44;7.70;99.90
42479;DHT22;28110;47.080;9.476;2023-04-01T19:49:41;7.60;99.90
42479;DHT22;28110;47.080;9.476;2023-04-01T19:52:17;7.60;99.90
42479;DHT22;28110;47.080;9.476;2023-04-01T20:00:31;7.60;99.90
42479;DHT22;28110;47.080;9.476;2023-04-01T20:12:00;7.60;99.90
42479;DHT22;28110;47.080;9.476;2023-04-01T20:14:58;7.60;99.90
42479;DHT22;28110;47.080;9.476;2023-04-01T20:17:32;7.60;99.90
42479;DHT22;28110;47.080;9.476;2023-04-01T20:25:58;7.60;99.90
42479;DHT22;28110;47.080;9.476;2023-04-01T20:28:43;7.60;99.90
42479;DHT22;28110;47.080;9.476;2023-04-01T20:31:34;7.60;99.90
42479;DHT22;28110;47.080;9.476;2023-04-01T20:34:26;7.60;99.90
42479;DHT22;28110;47.080;9.476;2023-04-01T20:40:02;7.60;99.90
42479;DHT22;28110;47.080;9.476;2023-04-01T20:46:00;7.60;99.90
42479;DHT22;28110;47.080;9.476;2023-04-01T20:51:37;7.60;99.90
42479;DHT22;28110;47.080;9.476;2023-04-01T21:07:56;7.60;99.90
42479;DHT22;28110;47.080;9.476;2023-04-01T21:16:00;7.60;99.90
42479;DHT22;28110;47.080;9.476;2023-04-01T21:35:39;7.50;99.90
42479;DHT22;28110;47.080;9.476;2023-04-01T21:38:46;7.50;99.90
42479;DHT22;28110;47.080;9.476;2023-04-01T21:41:17;7.40;99.90
42479;DHT22;28110;47.080;9.476;2023-04-01T21:44:08;7.30;99.90
42479;DHT22;28110;47.080;9.476;2023-04-01T22:01:35;7.30;99.90
42479;DHT22;28110;47.080;9.476;2023-04-01T22:07:12;7.30;99.90
42479;DHT22;28110;47.080;9.476;2023-04-01T22:09:39;7.30;99.90
42479;DHT22;28110;47.080;9.476;2023-04-01T22:12:17;7.20;99.90
42479;DHT22;28110;47.080;9.476;2023-04-01T22:15:23;7.30;99.90
42479;DHT22;28110;47.080;9.476;2023-04-01T22:18:09;7.20;99.90
42479;DHT22;28110;47.080;9.476;2023-04-01T22:21:05;7.30;99.90
42479;DHT22;28110;47.080;9.476;2023-04-01T22:23:39;7.20;99.90
42479;DHT22;28110;47.080;9.476;2023-04-01T22:28:51;7.20;99.90
42479;DHT22;28110;47.080;9.476;2023-04-01T22:32:17;7.20;99.90
42479;DHT22;28110;47.080;9.476;2023-04-01T22:37:01;7.10;99.90
42479;DHT22;28110;47.080;9.476;2023-04-01T22:39:54;7.10;99.90
42479;DHT22;28110;47.080;9.476;2023-04-01T22:42:45;7.20;99.90
42479;DHT22;28110;47.080;9.476;2023-04-01T22:50:40;7.20;99.90
42479;DHT22;28110;47.080;9.476;2023-04-01T22:56:33;7.20;99.90
42479;DHT22;28110;47.080;9.476;2023-04-01T22:59:06;7.20;99.90
42479;DHT22;28110;47.080;9.476;2023-04-01T23:01:38;7.30;99.90
42479;DHT22;28110;47.080;9.476;2023-04-01T23:04:07;7.20;99.90
42479;DHT22;28110;47.080;9.476;2023-04-01T23:06:41;7.20;99.90
42479;DHT22;28110;47.080;9.476;2023-04-01T23:09:12;7.20;99.90
42479;DHT22;28110;47.080;9.476;2023-04-01T23:14:39;7.20;99.90
42479;DHT22;28110;47.080;9.476;2023-04-01T23:23:12;7.20;99.90
42479;DHT22;28110;47.080;9.476;2023-04-01T23:34:01;7.10;99.90
42479;DHT22;28110;47.080;9.476;2023-04-01T23:36:28;7.10;99.90
42479;DHT22;28110;47.080;9.476;2023-04-01T23:38:55;7.00;99.90
42479;DHT22;28110;47.080;9.476;2023-04-01T23:41:29;7.00;99.90
42479;DHT22;28110;47.080;9.476;2023-04-01T23:43:59;6.90;99.90
42479;DHT22;28110;47.080;9.476;2023-04-01T23:46:25;6.90;99.90
42479;DHT22;28110;47.080;9.476;2023-04-01T23:48:52;6.90;99.90
42479;DHT22;28110;47.080;9.476;2023-04-01T23:56:56;6.90;99.90
42479;DHT22;28110;47.080;9.476;2023-04-01T23:59:30;6.80;99.90
